createdAt,value
2019-03-25T00:02:18.618Z,35.25
2019-03-25T00:04:49.252Z,34.88
2019-03-25T00:09:49.636Z,32.40
2019-03-25T00:14:50.123Z,51.07
2019-03-25T00:17:20.878Z,50.10
2019-03-25T00:19:51.242Z,49.27
2019-03-25T00:22:21.872Z,48.73
2019-03-25T00:24:52.745Z,48.28
2019-03-25T00:27:23.604Z,45.00
2019-03-25T00:29:54.235Z,43.63
2019-03-25T00:34:54.840Z,38.20
2019-03-25T00:39:55.308Z,36.33
2019-03-25T00:42:26.079Z,36.28
2019-03-25T00:44:56.728Z,36.75
2019-03-25T00:47:27.566Z,36.83
2019-03-25T00:49:58.222Z,36.98
2019-03-25T00:52:28.991Z,41.37
2019-03-25T00:57:29.460Z,37.58
2019-03-25T01:00:00.379Z,37.03
2019-03-25T01:02:31.272Z,40.25
2019-03-25T01:05:02.046Z,40.00
2019-03-25T01:07:32.694Z,38.78
2019-03-25T01:10:04.679Z,38.85
2019-03-25T01:12:35.533Z,36.98
2019-03-25T01:15:07.413Z,38.42
2019-03-25T01:17:38.164Z,57.40
2019-03-25T01:20:09.161Z,58.80
2019-03-25T01:22:40.186Z,56.28
2019-03-25T01:25:10.939Z,48.73
2019-03-25T01:27:41.589Z,45.40
2019-03-25T01:30:12.329Z,50.70
2019-03-25T01:32:43.078Z,43.48
2019-03-25T01:35:13.849Z,44.08
2019-03-25T01:37:44.503Z,45.60
2019-03-25T01:40:15.361Z,43.33
2019-03-25T01:42:46.095Z,41.65
2019-03-25T01:45:16.868Z,40.08
2019-03-25T01:47:47.604Z,39.27
2019-03-25T01:50:18.479Z,41.55
2019-03-25T01:52:49.110Z,40.12
2019-03-25T01:55:19.887Z,40.23
2019-03-25T01:57:50.533Z,42.93
2019-03-25T02:00:21.388Z,41.68
2019-03-25T02:02:52.142Z,39.70
2019-03-25T02:05:22.899Z,38.25
2019-03-25T02:07:53.657Z,42.70
2019-03-25T02:10:24.511Z,43.83
2019-03-25T02:12:55.262Z,46.35
2019-03-25T02:15:25.916Z,46.08
2019-03-25T02:17:56.768Z,46.40
2019-03-25T02:20:27.404Z,45.45
2019-03-25T02:22:58.386Z,40.85
2019-03-25T02:25:29.217Z,40.65
2019-03-25T02:28:00.088Z,41.80
2019-03-25T02:30:30.727Z,40.75
2019-03-25T02:35:31.212Z,43.10
2019-03-25T02:38:01.987Z,46.00
2019-03-25T02:40:32.847Z,46.37
2019-03-25T02:43:03.698Z,49.85
2019-03-25T02:45:34.549Z,46.58
2019-03-25T02:48:06.426Z,45.00
2019-03-25T02:50:37.163Z,49.38
2019-03-25T02:53:08.042Z,48.50
2019-03-25T02:55:41.774Z,46.50
2019-03-25T02:58:11.287Z,45.38
2019-03-25T03:00:42.138Z,48.17
2019-03-25T03:03:12.897Z,46.35
2019-03-25T03:05:43.527Z,47.78
2019-03-25T03:08:14.401Z,46.42
2019-03-25T03:10:45.279Z,45.33
2019-03-25T03:13:16.132Z,45.92
2019-03-25T03:15:46.768Z,45.78
2019-03-25T03:20:47.028Z,45.37
2019-03-25T03:23:17.703Z,48.42
2019-03-25T03:25:56.977Z,48.10
2019-03-25T03:28:21.048Z,45.65
2019-03-25T03:30:51.681Z,48.50
2019-03-25T03:33:22.434Z,49.67
2019-03-25T03:35:53.309Z,50.78
2019-03-25T03:38:24.065Z,57.80
2019-03-25T03:40:54.715Z,65.80
2019-03-25T03:43:25.453Z,56.60
2019-03-25T03:45:56.323Z,58.98
2019-03-25T03:48:27.980Z,58.20
2019-03-25T03:50:58.657Z,49.53
2019-03-25T03:53:29.285Z,44.03
2019-03-25T03:58:31.117Z,42.40
2019-03-25T04:01:02.059Z,39.55
2019-03-25T04:03:32.935Z,40.65
2019-03-25T04:06:03.564Z,39.33
2019-03-25T04:08:34.294Z,37.17
2019-03-25T04:11:05.087Z,38.85
2019-03-25T04:13:35.943Z,36.55
2019-03-25T04:16:06.579Z,37.08
2019-03-25T04:18:37.349Z,34.90
2019-03-25T04:21:07.888Z,36.88
2019-03-25T04:23:38.752Z,33.88
2019-03-25T04:26:09.506Z,34.88
2019-03-25T04:28:40.263Z,35.43
2019-03-25T04:31:11.016Z,35.43
2019-03-25T04:33:41.750Z,35.33
2019-03-25T04:36:12.504Z,34.08
2019-03-25T04:38:43.275Z,33.85
2019-03-25T04:41:13.933Z,33.45
2019-03-25T04:43:44.783Z,32.63
2019-03-25T04:46:15.636Z,31.87
2019-03-25T04:48:47.090Z,32.42
2019-03-25T04:51:17.863Z,31.77
2019-03-25T04:53:48.617Z,32.42
2019-03-25T04:56:19.350Z,30.70
2019-03-25T04:58:50.107Z,30.08
2019-03-25T05:01:20.759Z,29.15
2019-03-25T05:03:51.409Z,30.00
2019-03-25T05:08:52.014Z,30.88
2019-03-25T05:11:30.635Z,29.65
2019-03-25T05:13:54.850Z,29.92
2019-03-25T05:16:25.706Z,30.95
2019-03-25T05:18:56.339Z,29.52
2019-03-25T05:23:56.829Z,30.70
2019-03-25T05:26:27.480Z,28.27
2019-03-25T05:31:27.978Z,29.30
2019-03-25T05:33:58.626Z,30.48
2019-03-25T05:38:59.221Z,31.00
2019-03-25T05:41:29.854Z,30.43
2019-03-25T05:44:00.729Z,30.00
2019-03-25T05:46:31.359Z,30.80
2019-03-25T05:49:03.152Z,29.27
2019-03-25T05:51:33.787Z,29.67
2019-03-25T05:54:04.561Z,31.77
2019-03-25T05:56:35.298Z,29.48
2019-03-25T05:59:06.177Z,33.53
2019-03-25T06:01:36.925Z,31.10
2019-03-25T06:04:07.557Z,30.72
2019-03-25T06:06:38.312Z,32.28
2019-03-25T06:09:09.184Z,31.42
2019-03-25T06:11:39.938Z,31.90
2019-03-25T06:14:10.469Z,31.45
2019-03-25T06:16:41.344Z,33.58
2019-03-25T06:19:12.099Z,31.93
2019-03-25T06:21:42.850Z,32.15
2019-03-25T06:24:13.383Z,32.40
2019-03-25T06:26:44.257Z,30.95
2019-03-25T06:29:15.067Z,30.50
2019-03-25T06:31:45.747Z,30.55
2019-03-25T06:36:46.335Z,29.67
2019-03-25T06:39:17.006Z,30.20
2019-03-25T06:41:47.739Z,29.80
2019-03-25T06:44:18.611Z,31.10
2019-03-25T06:46:49.491Z,29.75
2019-03-25T06:49:21.434Z,29.27
2019-03-25T06:51:52.211Z,28.98
2019-03-25T06:54:22.856Z,29.72
2019-03-25T06:56:53.712Z,28.73
2019-03-25T06:59:24.879Z,28.90
2019-03-25T07:01:55.304Z,29.75
2019-03-25T07:04:26.573Z,29.27
2019-03-25T07:06:57.497Z,28.23
2019-03-25T07:09:29.858Z,28.62
2019-03-25T07:12:00.690Z,28.50
2019-03-25T07:14:31.139Z,28.85
2019-03-25T07:17:03.930Z,28.92
2019-03-25T07:19:34.388Z,28.00
2019-03-25T07:22:08.168Z,35.85
2019-03-25T07:24:40.294Z,32.80
2019-03-25T07:27:12.573Z,30.25
2019-03-25T07:29:43.420Z,29.10
2019-03-25T07:32:14.396Z,26.55
2019-03-25T07:34:45.065Z,26.85
2019-03-25T07:37:17.316Z,25.12
2019-03-25T07:39:48.582Z,25.70
2019-03-25T07:42:19.232Z,25.57
2019-03-25T07:44:50.717Z,26.02
2019-03-25T07:47:21.405Z,24.82
2019-03-25T07:49:52.826Z,24.18
2019-03-25T07:52:23.183Z,23.25
2019-03-25T07:54:54.064Z,22.48
2019-03-25T07:59:54.425Z,17.55
2019-03-25T08:02:25.178Z,17.40
2019-03-25T08:04:56.791Z,13.62
2019-03-25T08:07:27.085Z,14.65
2019-03-25T08:09:58.169Z,11.33
2019-03-25T08:12:28.721Z,11.25
2019-03-25T08:14:59.473Z,13.55
2019-03-25T08:17:31.428Z,13.78
2019-03-25T08:20:02.399Z,13.95
2019-03-25T08:22:34.379Z,11.88
2019-03-25T08:25:07.035Z,10.35
2019-03-25T08:27:37.710Z,10.28
2019-03-25T08:30:08.477Z,7.95
2019-03-25T08:32:39.115Z,8.13
2019-03-25T08:35:09.867Z,8.55
2019-03-25T08:37:40.743Z,7.40
2019-03-25T08:40:11.495Z,7.25
2019-03-25T08:42:42.129Z,6.37
2019-03-25T08:45:13.719Z,7.12
2019-03-25T08:47:44.045Z,6.08
2019-03-25T08:50:15.639Z,5.17
2019-03-25T08:52:46.389Z,6.80
2019-03-25T08:55:17.143Z,8.20
2019-03-25T08:57:48.113Z,8.33
2019-03-25T09:00:18.548Z,7.85
2019-03-25T09:02:49.303Z,7.67
2019-03-25T09:05:20.376Z,7.70
2019-03-25T09:07:50.960Z,7.17
2019-03-25T09:10:21.647Z,7.33
2019-03-25T09:12:52.300Z,7.70
2019-03-25T09:15:23.172Z,8.05
2019-03-25T09:17:54.030Z,7.67
2019-03-25T09:20:24.869Z,6.65
2019-03-25T09:22:55.417Z,7.25
2019-03-25T09:25:26.292Z,7.12
2019-03-25T09:27:57.966Z,7.85
2019-03-25T09:30:46.437Z,9.13
2019-03-25T09:33:17.274Z,7.67
2019-03-25T09:35:48.061Z,8.10
2019-03-25T09:38:18.884Z,8.63
2019-03-25T09:40:49.735Z,7.58
2019-03-25T09:43:20.593Z,7.83
2019-03-25T09:45:51.348Z,7.80
2019-03-25T09:48:22.084Z,7.92
2019-03-25T09:50:53.879Z,7.53
2019-03-25T09:53:24.833Z,7.15
2019-03-25T09:55:55.280Z,7.60
2019-03-25T09:58:35.589Z,8.30
2019-03-25T10:00:58.119Z,7.35
2019-03-25T10:03:28.873Z,7.67
2019-03-25T10:05:59.610Z,7.30
2019-03-25T10:08:30.378Z,7.28
2019-03-25T10:11:01.032Z,7.45
2019-03-25T10:13:31.886Z,6.83
2019-03-25T10:16:03.336Z,6.90
2019-03-25T10:18:34.011Z,7.53
2019-03-25T10:21:04.763Z,18.90
2019-03-25T10:23:35.524Z,8.85
2019-03-25T10:26:06.152Z,7.75
2019-03-25T10:28:48.076Z,7.30
2019-03-25T10:31:09.503Z,6.65
2019-03-25T10:33:40.151Z,7.10
2019-03-25T10:36:13.996Z,9.65
2019-03-25T10:38:46.004Z,7.12
2019-03-25T10:41:17.133Z,8.33
2019-03-25T10:43:50.787Z,7.62
2019-03-25T10:46:21.866Z,6.45
2019-03-25T10:49:02.709Z,6.80
2019-03-25T10:51:37.999Z,6.90
2019-03-25T10:54:09.110Z,9.35
2019-03-25T10:56:48.834Z,6.95
2019-03-25T10:59:11.950Z,6.62
2019-03-25T11:01:42.804Z,7.20
2019-03-25T11:04:13.437Z,8.20
2019-03-25T11:06:44.111Z,6.58
2019-03-25T11:09:14.980Z,9.28
2019-03-25T11:11:45.803Z,11.60
2019-03-25T11:14:16.578Z,11.22
2019-03-25T11:16:47.227Z,6.53
2019-03-25T11:19:18.082Z,9.05
2019-03-25T11:24:18.265Z,6.77
2019-03-25T11:26:48.810Z,6.58
2019-03-25T11:29:19.547Z,8.35
2019-03-25T11:31:50.201Z,7.03
2019-03-25T11:34:21.174Z,7.12
2019-03-25T11:36:51.723Z,6.65
2019-03-25T11:39:22.577Z,6.53
2019-03-25T11:41:53.650Z,7.05
2019-03-25T11:44:24.273Z,7.15
2019-03-25T11:46:55.031Z,6.90
2019-03-25T11:49:25.799Z,6.15
2019-03-25T11:51:57.368Z,6.25
2019-03-25T11:54:28.005Z,6.33
2019-03-25T11:56:58.776Z,7.87
2019-03-25T11:59:29.515Z,7.12
2019-03-25T12:02:00.389Z,7.00
2019-03-25T12:04:31.242Z,7.15
2019-03-25T12:07:01.896Z,7.08
2019-03-25T12:09:32.683Z,8.15
2019-03-25T12:14:32.826Z,17.47
2019-03-25T12:17:03.566Z,19.42
2019-03-25T12:19:34.318Z,10.53
2019-03-25T12:22:04.972Z,10.45
2019-03-25T12:24:35.744Z,10.32
2019-03-25T12:27:06.394Z,16.75
2019-03-25T12:29:37.251Z,9.33
2019-03-25T12:32:08.004Z,9.13
2019-03-25T12:34:38.639Z,22.45
2019-03-25T12:37:09.389Z,17.67
2019-03-25T12:39:40.265Z,11.83
2019-03-25T12:42:11.021Z,10.58
2019-03-25T12:44:41.673Z,11.93
2019-03-25T12:47:12.304Z,9.30
2019-03-25T12:49:43.175Z,14.70
2019-03-25T12:52:14.836Z,9.80
2019-03-25T12:54:45.485Z,15.60
2019-03-25T12:57:16.140Z,12.18
2019-03-25T12:59:46.688Z,13.58
2019-03-25T13:02:17.441Z,23.40
2019-03-25T13:04:48.314Z,15.60
2019-03-25T13:07:19.068Z,13.58
2019-03-25T13:09:49.720Z,12.88
2019-03-25T13:12:20.579Z,13.95
2019-03-25T13:14:52.839Z,13.85
2019-03-25T13:17:23.513Z,19.25
2019-03-25T13:19:56.114Z,19.90
2019-03-25T13:22:27.170Z,22.42
2019-03-25T13:24:57.825Z,12.18
2019-03-25T13:27:28.456Z,11.48
2019-03-25T13:29:59.128Z,13.85
2019-03-25T13:32:29.980Z,9.70
2019-03-25T13:35:00.842Z,9.78
2019-03-25T13:37:31.596Z,13.32
2019-03-25T13:40:02.365Z,18.12
2019-03-25T13:42:33.184Z,25.45
2019-03-25T13:45:04.781Z,12.70
2019-03-25T13:47:35.323Z,12.37
2019-03-25T13:50:07.206Z,17.95
2019-03-25T13:52:38.978Z,17.45
2019-03-25T13:55:09.835Z,21.90
2019-03-25T13:57:40.572Z,25.55
2019-03-25T14:00:11.241Z,26.80
2019-03-25T14:02:44.348Z,23.10
2019-03-25T14:05:15.001Z,21.20
2019-03-25T14:07:45.856Z,19.27
2019-03-25T14:10:16.790Z,16.35
2019-03-25T14:12:47.567Z,16.57
2019-03-25T14:15:18.423Z,26.65
2019-03-25T14:17:49.293Z,15.53
2019-03-25T14:20:20.034Z,13.75
2019-03-25T14:22:50.568Z,15.53
2019-03-25T14:25:21.440Z,14.90
2019-03-25T14:27:52.987Z,16.17
2019-03-25T14:30:23.865Z,17.23
2019-03-25T14:32:56.512Z,17.37
2019-03-25T14:35:28.155Z,17.50
2019-03-25T14:37:59.574Z,21.40
2019-03-25T14:40:30.197Z,19.95
2019-03-25T14:43:01.010Z,16.40
2019-03-25T14:45:31.670Z,19.55
2019-03-25T14:48:02.522Z,18.00
2019-03-25T14:50:33.272Z,20.52
2019-03-25T14:53:04.941Z,14.40
2019-03-25T14:55:35.586Z,18.07
2019-03-25T14:58:06.336Z,20.00
2019-03-25T15:00:37.209Z,15.90
2019-03-25T15:03:07.967Z,13.55
2019-03-25T15:05:38.725Z,14.78
2019-03-25T15:08:09.351Z,26.48
2019-03-25T15:10:40.109Z,16.62
2019-03-25T15:13:10.875Z,14.10
2019-03-25T15:15:41.632Z,33.60
2019-03-25T15:18:15.737Z,16.20
2019-03-25T15:20:44.660Z,15.40
2019-03-25T15:25:45.265Z,16.10
2019-03-25T15:28:15.890Z,12.15
2019-03-25T15:33:16.375Z,13.22
2019-03-25T15:35:47.263Z,15.72
2019-03-25T15:38:18.208Z,13.53
2019-03-25T15:40:49.487Z,14.47
2019-03-25T15:43:19.920Z,13.55
2019-03-25T15:45:52.085Z,14.87
2019-03-25T15:48:22.963Z,13.48
2019-03-25T15:50:53.717Z,13.93
2019-03-25T15:53:28.833Z,13.98
2019-03-25T15:55:59.740Z,16.87
2019-03-25T15:58:30.475Z,16.97
2019-03-25T16:01:01.239Z,15.53
2019-03-25T16:03:34.133Z,15.85
2019-03-25T16:06:04.771Z,17.77
2019-03-25T16:08:35.543Z,19.55
2019-03-25T16:11:06.291Z,16.67
2019-03-25T16:13:41.530Z,14.43
2019-03-25T16:16:12.288Z,15.63
2019-03-25T16:18:43.160Z,12.82
2019-03-25T16:21:13.790Z,12.45
2019-03-25T16:26:14.260Z,15.13
2019-03-25T16:28:45.151Z,15.53
2019-03-25T16:31:15.679Z,19.50
2019-03-25T16:33:46.555Z,20.00
2019-03-25T16:36:20.172Z,25.40
2019-03-25T16:38:50.927Z,26.33
2019-03-25T16:41:21.577Z,62.67
2019-03-25T16:43:52.319Z,60.28
2019-03-25T16:46:23.187Z,40.73
2019-03-25T16:48:55.178Z,36.33
2019-03-25T16:51:25.924Z,34.38
2019-03-25T16:53:57.380Z,27.93
2019-03-25T16:56:28.146Z,22.42
2019-03-25T16:58:58.678Z,24.70
2019-03-25T17:01:29.431Z,30.08
2019-03-25T17:04:00.305Z,23.52
2019-03-25T17:06:31.057Z,27.55
2019-03-25T17:09:01.716Z,18.42
2019-03-25T17:11:32.567Z,19.65
2019-03-25T17:14:03.344Z,20.62
2019-03-25T17:16:34.079Z,29.72
2019-03-25T17:19:04.726Z,22.87
2019-03-25T17:21:35.568Z,26.82
2019-03-25T17:26:42.551Z,25.88
2019-03-25T17:29:12.142Z,20.60
2019-03-25T17:31:42.793Z,22.02
2019-03-25T17:34:13.565Z,19.70
2019-03-25T17:36:45.626Z,25.15
2019-03-25T17:39:16.384Z,24.45
2019-03-25T17:41:47.249Z,20.85
2019-03-25T17:44:17.991Z,18.95
2019-03-25T17:46:48.644Z,23.20
2019-03-25T17:49:19.500Z,21.70
2019-03-25T17:51:50.253Z,18.50
2019-03-25T17:54:22.029Z,18.15
2019-03-25T17:56:52.784Z,21.50
2019-03-25T17:59:23.436Z,16.65
2019-03-25T18:01:54.178Z,30.30
2019-03-25T18:04:25.847Z,18.48
2019-03-25T18:06:56.416Z,32.15
2019-03-25T18:09:27.168Z,35.30
2019-03-25T18:11:57.907Z,16.12
2019-03-25T18:14:28.677Z,14.55
2019-03-25T18:16:59.335Z,13.08
2019-03-25T18:19:30.286Z,18.48
2019-03-25T18:22:01.142Z,18.80
2019-03-25T18:24:31.895Z,18.00
2019-03-25T18:27:02.750Z,15.78
2019-03-25T18:29:33.894Z,15.32
2019-03-25T18:32:04.666Z,13.88
2019-03-25T18:34:35.317Z,17.23
2019-03-25T18:37:07.285Z,24.92
2019-03-25T18:39:38.162Z,28.27
2019-03-25T18:42:08.914Z,30.45
2019-03-25T18:44:39.667Z,30.43
2019-03-25T18:47:13.076Z,32.08
2019-03-25T18:49:43.730Z,26.35
2019-03-25T18:52:17.859Z,20.55
2019-03-25T18:55:02.522Z,15.95
2019-03-25T18:57:33.787Z,16.80
2019-03-25T19:00:09.385Z,16.75
2019-03-25T19:02:39.796Z,15.58
2019-03-25T19:05:10.551Z,13.40
2019-03-25T19:07:41.227Z,14.13
2019-03-25T19:10:17.866Z,14.65
2019-03-25T19:12:48.740Z,13.08
2019-03-25T19:15:20.115Z,12.25
2019-03-25T19:17:50.674Z,13.03
2019-03-25T19:20:21.418Z,13.45
2019-03-25T19:22:53.779Z,14.25
2019-03-25T19:27:54.596Z,16.27
2019-03-25T19:30:25.151Z,16.80
2019-03-25T19:32:56.521Z,16.85
2019-03-25T19:35:30.221Z,15.53
2019-03-25T19:38:00.785Z,16.02
2019-03-25T19:40:31.456Z,14.80
2019-03-25T19:43:03.798Z,14.20
2019-03-25T19:45:34.588Z,14.80
2019-03-25T19:48:05.244Z,16.37
2019-03-25T19:50:35.885Z,19.80
2019-03-25T19:53:18.282Z,21.75
2019-03-25T19:55:39.852Z,20.45
2019-03-25T19:58:10.621Z,21.65
2019-03-25T20:00:41.443Z,21.12
2019-03-25T20:03:12.134Z,18.92
2019-03-25T20:05:42.982Z,19.52
2019-03-25T20:08:13.847Z,21.82
2019-03-25T20:10:44.594Z,21.52
2019-03-25T20:13:16.780Z,22.00
2019-03-25T20:15:47.642Z,22.87
2019-03-25T20:18:18.541Z,24.47
2019-03-25T20:20:49.369Z,24.55
2019-03-25T20:23:20.123Z,24.92
2019-03-25T20:25:50.928Z,29.70
2019-03-25T20:28:21.675Z,23.05
2019-03-25T20:30:52.448Z,22.87
2019-03-25T20:33:23.953Z,25.30
2019-03-25T20:35:54.571Z,23.27
2019-03-25T20:38:25.344Z,25.85
2019-03-25T20:40:55.975Z,25.77
2019-03-25T20:43:26.774Z,27.42
2019-03-25T20:45:57.688Z,25.10
2019-03-25T20:48:28.344Z,22.17
2019-03-25T20:51:00.495Z,21.80
2019-03-25T20:53:31.226Z,21.85
2019-03-25T20:56:03.089Z,21.20
2019-03-25T20:58:34.420Z,18.27
2019-03-25T21:01:05.265Z,19.75
2019-03-25T21:03:36.031Z,20.40
2019-03-25T21:06:06.917Z,17.52
2019-03-25T21:08:38.272Z,16.65
2019-03-25T21:11:09.315Z,16.42
2019-03-25T21:13:39.917Z,15.72
2019-03-25T21:16:10.934Z,14.40
2019-03-25T21:18:42.617Z,13.55
2019-03-25T21:21:13.366Z,13.58
2019-03-25T21:23:44.122Z,12.55
2019-03-25T21:28:44.368Z,11.53
2019-03-25T21:33:45.089Z,12.93
2019-03-25T21:36:15.763Z,11.97
2019-03-25T21:38:46.776Z,12.73
2019-03-25T21:41:18.169Z,11.43
2019-03-25T21:43:48.647Z,11.55
2019-03-25T21:46:19.444Z,10.82
2019-03-25T21:48:50.455Z,9.95
2019-03-25T21:51:21.078Z,10.25
2019-03-25T21:53:53.286Z,8.40
2019-03-25T21:56:24.913Z,8.68
2019-03-25T21:58:55.891Z,7.70
2019-03-25T22:01:26.583Z,7.08
2019-03-25T22:03:57.294Z,6.10
2019-03-25T22:06:28.150Z,7.10
2019-03-25T22:08:58.905Z,5.75
2019-03-25T22:11:29.541Z,6.72
2019-03-25T22:16:30.142Z,8.40
2019-03-25T22:19:00.777Z,7.60
2019-03-25T22:21:31.529Z,8.43
2019-03-25T22:24:02.405Z,8.63
2019-03-25T22:26:33.158Z,8.68
2019-03-25T22:29:03.790Z,7.03
2019-03-25T22:31:34.547Z,7.53
2019-03-25T22:34:05.419Z,6.92
2019-03-25T22:36:36.054Z,6.60
2019-03-25T22:41:36.436Z,6.73
2019-03-25T22:44:07.214Z,5.90
2019-03-25T22:46:37.741Z,6.90
2019-03-25T22:49:08.613Z,7.03
2019-03-25T22:51:39.366Z,7.42
2019-03-25T22:54:10.001Z,6.75
2019-03-25T22:56:41.574Z,7.10
2019-03-25T22:59:12.231Z,7.78
2019-03-25T23:04:12.732Z,6.67
2019-03-25T23:06:43.481Z,5.97
2019-03-25T23:09:14.335Z,5.87
2019-03-25T23:11:45.074Z,5.95
2019-03-25T23:14:15.846Z,5.90
2019-03-25T23:16:46.497Z,6.17
2019-03-25T23:19:17.352Z,5.92
2019-03-25T23:21:48.209Z,5.80
2019-03-25T23:24:18.963Z,7.10
2019-03-25T23:26:49.614Z,6.60
2019-03-25T23:29:20.473Z,6.00
2019-03-25T23:31:51.229Z,5.78
2019-03-25T23:34:26.271Z,5.87
2019-03-25T23:36:56.907Z,6.17
2019-03-25T23:39:27.662Z,6.33
2019-03-25T23:41:58.419Z,6.50
2019-03-25T23:44:29.190Z,6.55
2019-03-25T23:46:59.821Z,5.97
2019-03-25T23:49:30.695Z,6.22
2019-03-25T23:52:01.738Z,6.10
2019-03-25T23:54:32.389Z,6.00
2019-03-25T23:57:04.286Z,6.85
2019-03-25T23:59:35.140Z,6.40
